sensor_id;sensor_type;location;lat;lon;timestamp;pressure;altitude;pressure_sealevel;temperature;humidity
46392;BME280;32098;49.448;7.904;2023-02-17T00:00:55;98896.44;;;8.02;63.14
46392;BME280;32098;49.448;7.904;2023-02-17T00:03:24;98931.75;;;8.24;62.93
46392;BME280;32098;49.448;7.904;2023-02-17T00:05:53;98913.66;;;8.13;63.46
46392;BME280;32098;49.448;7.904;2023-02-17T00:08:20;98905.91;;;8.11;62.88
46392;BME280;32098;49.448;7.904;2023-02-17T00:10:57;98927.44;;;8.23;62.98
46392;BME280;32098;49.448;7.904;2023-02-17T00:13:24;98925.81;;;8.22;63.16
46392;BME280;32098;49.448;7.904;2023-02-17T00:15:51;98920.25;;;8.17;63.28
46392;BME280;32098;49.448;7.904;2023-02-17T00:18:18;98906.72;;;8.12;63.12
46392;BME280;32098;49.448;7.904;2023-02-17T00:20:45;98912.88;;;8.12;63.64
46392;BME280;32098;49.448;7.904;2023-02-17T00:23:12;98897.44;;;8.01;63.50
46392;BME280;32098;49.448;7.904;2023-02-17T00:25:39;98909.56;;;8.10;63.34
46392;BME280;32098;49.448;7.904;2023-02-17T00:28:06;98918.19;;;8.12;63.88
46392;BME280;32098;49.448;7.904;2023-02-17T00:30:33;98901.56;;;8.04;64.01
46392;BME280;32098;49.448;7.904;2023-02-17T00:33:00;98875.13;;;7.95;63.70
46392;BME280;32098;49.448;7.904;2023-02-17T00:35:27;98908.94;;;8.08;64.14
46392;BME280;32098;49.448;7.904;2023-02-17T00:37:54;98909.00;;;8.15;64.25
46392;BME280;32098;49.448;7.904;2023-02-17T00:40:21;98845.97;;;7.74;64.26
46392;BME280;32098;49.448;7.904;2023-02-17T00:42:47;98897.25;;;8.03;64.53
46392;BME280;32098;49.448;7.904;2023-02-17T00:45:16;98902.22;;;8.12;64.34
46392;BME280;32098;49.448;7.904;2023-02-17T00:47:43;98852.16;;;7.81;64.32
46392;BME280;32098;49.448;7.904;2023-02-17T00:50:10;98897.91;;;8.05;65.17
46392;BME280;32098;49.448;7.904;2023-02-17T00:52:38;98884.75;;;7.97;65.41
46392;BME280;32098;49.448;7.904;2023-02-17T00:55:06;98872.63;;;7.87;65.19
46392;BME280;32098;49.448;7.904;2023-02-17T00:57:34;98907.13;;;8.09;65.49
46392;BME280;32098;49.448;7.904;2023-02-17T01:00:03;98906.28;;;8.08;65.26
46392;BME280;32098;49.448;7.904;2023-02-17T01:02:32;98873.19;;;7.83;65.56
46392;BME280;32098;49.448;7.904;2023-02-17T01:04:59;98889.44;;;7.94;65.85
46392;BME280;32098;49.448;7.904;2023-02-17T01:07:26;98881.81;;;7.85;65.72
46392;BME280;32098;49.448;7.904;2023-02-17T01:09:52;98905.88;;;8.05;65.47
46392;BME280;32098;49.448;7.904;2023-02-17T01:12:19;98906.28;;;8.08;65.31
46392;BME280;32098;49.448;7.904;2023-02-17T01:14:48;98885.16;;;8.00;65.66
46392;BME280;32098;49.448;7.904;2023-02-17T01:17:14;98819.06;;;7.56;65.97
46392;BME280;32098;49.448;7.904;2023-02-17T01:19:41;98871.13;;;7.78;66.29
46392;BME280;32098;49.448;7.904;2023-02-17T01:22:08;98896.00;;;7.99;66.58
46392;BME280;32098;49.448;7.904;2023-02-17T01:24:35;98896.47;;;8.09;66.26
46392;BME280;32098;49.448;7.904;2023-02-17T01:27:04;98897.44;;;7.94;67.01
46392;BME280;32098;49.448;7.904;2023-02-17T01:29:30;98881.25;;;7.89;67.65
46392;BME280;32098;49.448;7.904;2023-02-17T01:31:58;98868.72;;;7.83;67.35
46392;BME280;32098;49.448;7.904;2023-02-17T01:34:26;98890.91;;;7.97;67.87
46392;BME280;32098;49.448;7.904;2023-02-17T01:36:52;98894.31;;;7.91;67.62
46392;BME280;32098;49.448;7.904;2023-02-17T01:39:19;98835.66;;;7.65;68.24
46392;BME280;32098;49.448;7.904;2023-02-17T01:41:46;98874.28;;;7.88;68.09
46392;BME280;32098;49.448;7.904;2023-02-17T01:44:16;98882.25;;;7.88;68.28
46392;BME280;32098;49.448;7.904;2023-02-17T01:46:46;98899.66;;;7.98;68.81
46392;BME280;32098;49.448;7.904;2023-02-17T01:49:22;98895.63;;;8.02;69.00
46392;BME280;32098;49.448;7.904;2023-02-17T01:51:58;98892.34;;;8.00;69.51
46392;BME280;32098;49.448;7.904;2023-02-17T01:54:43;98900.94;;;8.02;69.56
46392;BME280;32098;49.448;7.904;2023-02-17T01:57:14;98860.34;;;7.86;69.34
46392;BME280;32098;49.448;7.904;2023-02-17T01:59:45;98868.56;;;7.91;69.46
46392;BME280;32098;49.448;7.904;2023-02-17T02:02:13;98868.19;;;8.01;69.40
46392;BME280;32098;49.448;7.904;2023-02-17T02:04:44;98853.59;;;7.84;70.55
46392;BME280;32098;49.448;7.904;2023-02-17T02:07:16;98863.19;;;7.85;70.60
46392;BME280;32098;49.448;7.904;2023-02-17T02:09:55;98874.28;;;7.95;70.67
46392;BME280;32098;49.448;7.904;2023-02-17T02:12:26;98867.19;;;8.02;70.47
46392;BME280;32098;49.448;7.904;2023-02-17T02:15:02;98862.63;;;7.89;71.56
46392;BME280;32098;49.448;7.904;2023-02-17T02:20:37;98869.56;;;7.90;72.51
46392;BME280;32098;49.448;7.904;2023-02-17T02:23:19;98847.13;;;7.65;73.84
46392;BME280;32098;49.448;7.904;2023-02-17T02:31:46;98822.97;;;7.60;74.00
46392;BME280;32098;49.448;7.904;2023-02-17T02:34:36;98858.94;;;7.90;73.88
46392;BME280;32098;49.448;7.904;2023-02-17T02:37:57;98858.31;;;7.88;74.75
46392;BME280;32098;49.448;7.904;2023-02-17T02:39:59;98853.00;;;7.88;74.62
46392;BME280;32098;49.448;7.904;2023-02-17T02:42:31;98851.34;;;7.87;74.34
46392;BME280;32098;49.448;7.904;2023-02-17T02:44:59;98844.31;;;7.73;75.20
46392;BME280;32098;49.448;7.904;2023-02-17T02:47:47;98832.84;;;7.66;75.56
46392;BME280;32098;49.448;7.904;2023-02-17T02:50:53;98836.25;;;7.60;76.53
46392;BME280;32098;49.448;7.904;2023-02-17T02:53:47;98838.50;;;7.57;77.38
46392;BME280;32098;49.448;7.904;2023-02-17T02:57:12;98842.19;;;7.62;77.58
46392;BME280;32098;49.448;7.904;2023-02-17T02:59:42;98837.72;;;7.63;77.37
46392;BME280;32098;49.448;7.904;2023-02-17T03:02:32;98824.00;;;7.59;77.88
46392;BME280;32098;49.448;7.904;2023-02-17T03:10:09;98825.53;;;7.47;79.77
46392;BME280;32098;49.448;7.904;2023-02-17T03:12:37;98815.50;;;7.43;80.14
46392;BME280;32098;49.448;7.904;2023-02-17T03:15:12;98786.53;;;7.20;81.13
46392;BME280;32098;49.448;7.904;2023-02-17T03:17:40;98812.78;;;7.29;82.37
46392;BME280;32098;49.448;7.904;2023-02-17T03:20:07;98800.47;;;7.22;82.73
46392;BME280;32098;49.448;7.904;2023-02-17T03:22:40;98815.59;;;7.28;83.24
46392;BME280;32098;49.448;7.904;2023-02-17T03:25:08;98801.47;;;7.21;83.37
46392;BME280;32098;49.448;7.904;2023-02-17T03:27:36;98806.81;;;7.27;83.35
46392;BME280;32098;49.448;7.904;2023-02-17T03:30:03;98805.84;;;7.35;83.65
46392;BME280;32098;49.448;7.904;2023-02-17T03:32:30;98731.63;;;6.72;84.14
46392;BME280;32098;49.448;7.904;2023-02-17T03:34:57;98803.97;;;7.29;83.67
46392;BME280;32098;49.448;7.904;2023-02-17T03:37:23;98743.47;;;6.97;83.08
46392;BME280;32098;49.448;7.904;2023-02-17T03:39:50;98809.72;;;7.32;83.81
46392;BME280;32098;49.448;7.904;2023-02-17T03:42:18;98805.19;;;7.26;84.16
46392;BME280;32098;49.448;7.904;2023-02-17T03:44:45;98781.38;;;7.12;84.35
46392;BME280;32098;49.448;7.904;2023-02-17T03:47:12;98823.81;;;7.33;83.96
46392;BME280;32098;49.448;7.904;2023-02-17T03:49:39;98729.63;;;6.80;83.57
46392;BME280;32098;49.448;7.904;2023-02-17T03:52:06;98801.72;;;7.26;83.99
46392;BME280;32098;49.448;7.904;2023-02-17T03:54:37;98817.50;;;7.34;84.27
46392;BME280;32098;49.448;7.904;2023-02-17T03:57:07;98803.53;;;7.25;84.48
46392;BME280;32098;49.448;7.904;2023-02-17T03:59:34;98815.84;;;7.33;85.10
46392;BME280;32098;49.448;7.904;2023-02-17T04:02:02;98750.44;;;6.77;85.61
46392;BME280;32098;49.448;7.904;2023-02-17T04:04:29;98811.13;;;7.28;85.48
46392;BME280;32098;49.448;7.904;2023-02-17T04:06:55;98807.63;;;7.28;85.53
46392;BME280;32098;49.448;7.904;2023-02-17T04:09:26;98721.78;;;6.65;85.88
46392;BME280;32098;49.448;7.904;2023-02-17T04:11:53;98775.94;;;6.99;86.08
46392;BME280;32098;49.448;7.904;2023-02-17T04:14:19;98818.63;;;7.18;87.95
46392;BME280;32098;49.448;7.904;2023-02-17T04:16:49;98793.81;;;7.11;87.26
46392;BME280;32098;49.448;7.904;2023-02-17T04:19:16;98806.41;;;7.24;86.88
46392;BME280;32098;49.448;7.904;2023-02-17T04:21:44;98816.41;;;7.22;87.62
46392;BME280;32098;49.448;7.904;2023-02-17T04:24:10;98801.59;;;7.13;87.74
46392;BME280;32098;49.448;7.904;2023-02-17T04:26:37;98816.56;;;7.20;87.26
46392;BME280;32098;49.448;7.904;2023-02-17T04:29:04;98825.81;;;7.24;87.67
46392;BME280;32098;49.448;7.904;2023-02-17T04:31:30;98811.72;;;7.24;87.51
46392;BME280;32098;49.448;7.904;2023-02-17T04:33:57;98793.13;;;7.03;87.35
46392;BME280;32098;49.448;7.904;2023-02-17T04:36:24;98776.69;;;6.93;87.82
46392;BME280;32098;49.448;7.904;2023-02-17T04:38:51;98809.19;;;7.16;87.84
46392;BME280;32098;49.448;7.904;2023-02-17T04:41:20;98810.84;;;7.17;88.35
46392;BME280;32098;49.448;7.904;2023-02-17T04:43:46;98807.38;;;7.16;88.32
46392;BME280;32098;49.448;7.904;2023-02-17T04:46:13;98818.28;;;7.28;88.28
46392;BME280;32098;49.448;7.904;2023-02-17T04:48:40;98763.19;;;6.88;88.53
46392;BME280;32098;49.448;7.904;2023-02-17T04:51:07;98811.25;;;7.20;88.75
46392;BME280;32098;49.448;7.904;2023-02-17T04:53:34;98770.25;;;7.02;88.35
46392;BME280;32098;49.448;7.904;2023-02-17T04:56:01;98814.53;;;7.22;89.26
46392;BME280;32098;49.448;7.904;2023-02-17T04:58:27;98779.22;;;7.01;89.79
46392;BME280;32098;49.448;7.904;2023-02-17T05:00:57;98810.03;;;7.16;89.71
46392;BME280;32098;49.448;7.904;2023-02-17T05:03:24;98808.56;;;7.14;90.05
46392;BME280;32098;49.448;7.904;2023-02-17T05:05:51;98786.19;;;7.02;89.93
46392;BME280;32098;49.448;7.904;2023-02-17T05:08:18;98812.91;;;7.21;89.51
46392;BME280;32098;49.448;7.904;2023-02-17T05:10:45;98783.88;;;7.20;89.75
46392;BME280;32098;49.448;7.904;2023-02-17T05:13:11;98784.84;;;7.12;89.57
46392;BME280;32098;49.448;7.904;2023-02-17T05:15:38;98800.63;;;7.20;89.64
46392;BME280;32098;49.448;7.904;2023-02-17T05:18:06;98807.53;;;7.15;89.90
46392;BME280;32098;49.448;7.904;2023-02-17T05:20:32;98816.16;;;7.17;90.13
46392;BME280;32098;49.448;7.904;2023-02-17T05:22:59;98742.50;;;6.77;90.10
46392;BME280;32098;49.448;7.904;2023-02-17T05:25:26;98830.69;;;7.21;90.09
46392;BME280;32098;49.448;7.904;2023-02-17T05:27:53;98830.44;;;7.16;90.69
46392;BME280;32098;49.448;7.904;2023-02-17T05:30:21;98832.09;;;7.17;90.27
46392;BME280;32098;49.448;7.904;2023-02-17T05:32:48;98808.69;;;7.06;90.44
46392;BME280;32098;49.448;7.904;2023-02-17T05:35:15;98822.41;;;7.09;90.27
46392;BME280;32098;49.448;7.904;2023-02-17T05:37:41;98826.63;;;7.25;90.53
46392;BME280;32098;49.448;7.904;2023-02-17T05:40:08;98839.53;;;7.28;91.06
46392;BME280;32098;49.448;7.904;2023-02-17T05:42:35;98811.13;;;7.07;91.24
46392;BME280;32098;49.448;7.904;2023-02-17T05:45:03;98818.03;;;7.23;92.08
46392;BME280;32098;49.448;7.904;2023-02-17T05:47:30;98746.59;;;7.07;93.63
46392;BME280;32098;49.448;7.904;2023-02-17T05:49:58;98801.25;;;7.50;93.22
46392;BME280;32098;49.448;7.904;2023-02-17T05:52:25;98812.41;;;7.73;90.68
46392;BME280;32098;49.448;7.904;2023-02-17T05:54:53;98803.09;;;7.90;89.63
46392;BME280;32098;49.448;7.904;2023-02-17T05:57:20;98838.50;;;7.98;87.47
46392;BME280;32098;49.448;7.904;2023-02-17T05:59:48;98803.44;;;7.74;87.32
46392;BME280;32098;49.448;7.904;2023-02-17T06:02:17;98822.59;;;8.04;88.03
46392;BME280;32098;49.448;7.904;2023-02-17T06:04:43;98855.25;;;8.39;86.26
46392;BME280;32098;49.448;7.904;2023-02-17T06:07:13;98864.28;;;8.51;85.81
46392;BME280;32098;49.448;7.904;2023-02-17T06:09:40;98813.03;;;8.23;83.99
46392;BME280;32098;49.448;7.904;2023-02-17T06:12:06;98854.53;;;8.71;83.87
46392;BME280;32098;49.448;7.904;2023-02-17T06:14:33;98830.72;;;8.63;83.41
46392;BME280;32098;49.448;7.904;2023-02-17T06:17:00;98837.69;;;8.57;81.31
46392;BME280;32098;49.448;7.904;2023-02-17T06:19:30;98793.09;;;7.99;82.22
46392;BME280;32098;49.448;7.904;2023-02-17T06:21:58;98834.66;;;8.07;83.75
46392;BME280;32098;49.448;7.904;2023-02-17T06:24:28;98849.50;;;7.88;85.51
46392;BME280;32098;49.448;7.904;2023-02-17T06:26:55;98786.88;;;7.38;86.43
46392;BME280;32098;49.448;7.904;2023-02-17T06:29:22;98876.69;;;7.83;87.48
46392;BME280;32098;49.448;7.904;2023-02-17T06:31:50;98821.97;;;7.27;88.48
46392;BME280;32098;49.448;7.904;2023-02-17T06:34:19;98880.22;;;7.63;88.62
46392;BME280;32098;49.448;7.904;2023-02-17T06:36:45;98832.66;;;7.40;89.10
46392;BME280;32098;49.448;7.904;2023-02-17T06:39:12;98854.53;;;7.42;89.57
46392;BME280;32098;49.448;7.904;2023-02-17T06:41:39;98868.25;;;7.46;90.60
46392;BME280;32098;49.448;7.904;2023-02-17T06:44:07;98874.50;;;7.59;90.10
46392;BME280;32098;49.448;7.904;2023-02-17T06:46:35;98821.28;;;7.18;90.09
46392;BME280;32098;49.448;7.904;2023-02-17T06:49:02;98874.78;;;7.43;91.24
46392;BME280;32098;49.448;7.904;2023-02-17T06:51:31;98821.56;;;7.09;91.69
46392;BME280;32098;49.448;7.904;2023-02-17T06:53:58;98828.28;;;7.05;92.05
46392;BME280;32098;49.448;7.904;2023-02-17T06:56:25;98838.03;;;7.19;91.60
46392;BME280;32098;49.448;7.904;2023-02-17T06:58:52;98850.53;;;7.25;91.32
46392;BME280;32098;49.448;7.904;2023-02-17T07:01:22;98884.84;;;7.48;91.55
46392;BME280;32098;49.448;7.904;2023-02-17T07:03:53;98883.94;;;7.34;92.04
46392;BME280;32098;49.448;7.904;2023-02-17T07:06:22;98864.22;;;7.22;92.24
46392;BME280;32098;49.448;7.904;2023-02-17T07:08:50;98897.88;;;7.43;92.10
46392;BME280;32098;49.448;7.904;2023-02-17T07:11:18;98908.09;;;7.39;93.04
46392;BME280;32098;49.448;7.904;2023-02-17T07:13:45;98903.78;;;7.38;93.20
46392;BME280;32098;49.448;7.904;2023-02-17T07:16:15;98897.84;;;7.36;92.83
46392;BME280;32098;49.448;7.904;2023-02-17T07:18:43;98883.81;;;7.21;93.01
46392;BME280;32098;49.448;7.904;2023-02-17T07:21:10;98915.00;;;7.34;93.40
46392;BME280;32098;49.448;7.904;2023-02-17T07:23:37;98889.34;;;7.19;93.36
46392;BME280;32098;49.448;7.904;2023-02-17T07:26:09;98936.97;;;7.49;92.84
46392;BME280;32098;49.448;7.904;2023-02-17T07:28:36;98929.34;;;7.39;93.42
46392;BME280;32098;49.448;7.904;2023-02-17T07:31:08;98939.56;;;7.42;93.72
46392;BME280;32098;49.448;7.904;2023-02-17T07:33:36;98944.50;;;7.45;93.87
46392;BME280;32098;49.448;7.904;2023-02-17T07:36:07;98851.75;;;6.80;94.33
46392;BME280;32098;49.448;7.904;2023-02-17T07:38:35;98933.38;;;7.35;94.56
46392;BME280;32098;49.448;7.904;2023-02-17T07:41:06;98926.69;;;7.39;94.31
46392;BME280;32098;49.448;7.904;2023-02-17T07:43:33;98892.53;;;7.15;94.73
46392;BME280;32098;49.448;7.904;2023-02-17T07:46:02;98923.63;;;7.42;94.33
46392;BME280;32098;49.448;7.904;2023-02-17T07:48:30;98921.63;;;7.23;94.88
46392;BME280;32098;49.448;7.904;2023-02-17T07:51:25;98917.06;;;7.38;94.20
46392;BME280;32098;49.448;7.904;2023-02-17T07:53:54;98867.56;;;7.09;94.21
46392;BME280;32098;49.448;7.904;2023-02-17T07:56:22;98916.94;;;7.46;93.45
46392;BME280;32098;49.448;7.904;2023-02-17T07:58:50;98838.03;;;6.98;93.38
46392;BME280;32098;49.448;7.904;2023-02-17T08:01:21;98888.06;;;7.43;93.59
46392;BME280;32098;49.448;7.904;2023-02-17T08:03:49;98882.53;;;7.38;93.43
46392;BME280;32098;49.448;7.904;2023-02-17T08:06:20;98875.63;;;7.44;92.98
46392;BME280;32098;49.448;7.904;2023-02-17T08:08:50;98893.13;;;7.59;92.06
46392;BME280;32098;49.448;7.904;2023-02-17T08:11:36;98883.34;;;7.66;91.67
46392;BME280;32098;49.448;7.904;2023-02-17T08:14:24;98882.16;;;7.75;91.40
46392;BME280;32098;49.448;7.904;2023-02-17T08:16:52;98874.75;;;7.64;91.22
46392;BME280;32098;49.448;7.904;2023-02-17T08:19:19;98897.09;;;7.76;90.81
46392;BME280;32098;49.448;7.904;2023-02-17T08:21:47;98871.06;;;7.65;89.83
46392;BME280;32098;49.448;7.904;2023-02-17T08:24:15;98907.19;;;7.87;89.63
46392;BME280;32098;49.448;7.904;2023-02-17T08:26:47;98832.03;;;7.38;89.48
46392;BME280;32098;49.448;7.904;2023-02-17T08:29:16;98929.09;;;7.89;90.00
46392;BME280;32098;49.448;7.904;2023-02-17T08:31:44;98898.13;;;7.75;89.25
46392;BME280;32098;49.448;7.904;2023-02-17T08:34:12;98927.44;;;7.88;89.57
46392;BME280;32098;49.448;7.904;2023-02-17T08:36:39;98922.75;;;7.90;89.65
46392;BME280;32098;49.448;7.904;2023-02-17T08:39:10;98881.44;;;7.60;89.59
46392;BME280;32098;49.448;7.904;2023-02-17T08:41:39;98929.53;;;7.93;89.48
46392;BME280;32098;49.448;7.904;2023-02-17T08:44:09;98914.84;;;7.97;89.16
46392;BME280;32098;49.448;7.904;2023-02-17T08:46:36;98916.47;;;7.98;89.85
46392;BME280;32098;49.448;7.904;2023-02-17T08:49:05;98928.38;;;8.02;88.89
46392;BME280;32098;49.448;7.904;2023-02-17T08:51:33;98926.28;;;7.98;89.15
46392;BME280;32098;49.448;7.904;2023-02-17T08:54:03;98935.66;;;7.93;89.59
46392;BME280;32098;49.448;7.904;2023-02-17T08:56:32;98923.81;;;7.96;89.16
46392;BME280;32098;49.448;7.904;2023-02-17T08:58:59;98904.59;;;8.01;89.04
46392;BME280;32098;49.448;7.904;2023-02-17T09:01:26;98939.13;;;8.22;88.43
46392;BME280;32098;49.448;7.904;2023-02-17T09:03:54;98937.47;;;8.21;88.61
46392;BME280;32098;49.448;7.904;2023-02-17T09:06:23;98935.59;;;8.15;88.39
46392;BME280;32098;49.448;7.904;2023-02-17T09:08:51;98883.00;;;7.82;88.72
46392;BME280;32098;49.448;7.904;2023-02-17T09:11:18;98903.81;;;7.72;90.32
46392;BME280;32098;49.448;7.904;2023-02-17T09:13:46;98928.06;;;7.90;90.21
46392;BME280;32098;49.448;7.904;2023-02-17T09:16:13;98939.75;;;7.89;90.39
46392;BME280;32098;49.448;7.904;2023-02-17T09:18:42;98951.47;;;8.02;90.57
46392;BME280;32098;49.448;7.904;2023-02-17T09:21:11;98974.56;;;7.94;90.97
46392;BME280;32098;49.448;7.904;2023-02-17T09:23:39;98941.69;;;7.74;91.04
46392;BME280;32098;49.448;7.904;2023-02-17T09:26:09;98970.50;;;8.05;90.88
46392;BME280;32098;49.448;7.904;2023-02-17T09:28:37;98963.34;;;8.06;91.02
46392;BME280;32098;49.448;7.904;2023-02-17T09:31:08;98953.53;;;8.00;91.40
46392;BME280;32098;49.448;7.904;2023-02-17T09:33:35;98928.28;;;7.89;91.56
46392;BME280;32098;49.448;7.904;2023-02-17T09:36:04;98949.19;;;7.92;92.59
46392;BME280;32098;49.448;7.904;2023-02-17T09:38:33;98892.09;;;7.60;92.31
46392;BME280;32098;49.448;7.904;2023-02-17T09:41:21;98942.00;;;7.92;92.00
46392;BME280;32098;49.448;7.904;2023-02-17T09:43:52;98868.66;;;7.43;93.01
46392;BME280;32098;49.448;7.904;2023-02-17T09:48:51;98899.19;;;7.81;91.88
46392;BME280;32098;49.448;7.904;2023-02-17T09:51:46;98923.06;;;8.02;91.32
46392;BME280;32098;49.448;7.904;2023-02-17T09:54:24;98962.31;;;8.34;89.90
46392;BME280;32098;49.448;7.904;2023-02-17T09:56:55;98929.25;;;8.16;89.17
46392;BME280;32098;49.448;7.904;2023-02-17T09:59:27;98949.56;;;8.23;89.05
46392;BME280;32098;49.448;7.904;2023-02-17T10:01:56;98914.09;;;8.10;88.98
46392;BME280;32098;49.448;7.904;2023-02-17T10:04:36;98958.47;;;8.50;87.92
46392;BME280;32098;49.448;7.904;2023-02-17T10:07:14;98929.34;;;8.35;87.17
46392;BME280;32098;49.448;7.904;2023-02-17T10:10:10;98967.13;;;8.65;86.23
46392;BME280;32098;49.448;7.904;2023-02-17T10:12:48;98977.78;;;8.65;85.92
46392;BME280;32098;49.448;7.904;2023-02-17T10:15:21;98944.59;;;8.54;85.39
46392;BME280;32098;49.448;7.904;2023-02-17T10:21:06;98965.28;;;8.59;85.71
46392;BME280;32098;49.448;7.904;2023-02-17T10:23:38;98973.69;;;8.63;85.70
46392;BME280;32098;49.448;7.904;2023-02-17T10:26:21;98986.28;;;8.41;86.31
46392;BME280;32098;49.448;7.904;2023-02-17T10:29:04;98965.78;;;8.35;86.64
46392;BME280;32098;49.448;7.904;2023-02-17T10:36:56;98992.06;;;8.51;87.24
46392;BME280;32098;49.448;7.904;2023-02-17T10:39:50;98985.31;;;8.48;86.72
46392;BME280;32098;49.448;7.904;2023-02-17T10:42:25;98987.69;;;8.71;86.42
46392;BME280;32098;49.448;7.904;2023-02-17T10:44:57;98976.78;;;8.59;86.43
46392;BME280;32098;49.448;7.904;2023-02-17T10:47:27;98960.34;;;8.49;86.51
46392;BME280;32098;49.448;7.904;2023-02-17T10:49:55;98977.78;;;8.58;86.08
46392;BME280;32098;49.448;7.904;2023-02-17T10:52:30;98992.22;;;8.77;86.26
46392;BME280;32098;49.448;7.904;2023-02-17T10:55:02;99000.84;;;8.86;85.56
46392;BME280;32098;49.448;7.904;2023-02-17T10:57:53;98960.19;;;8.64;85.79
46392;BME280;32098;49.448;7.904;2023-02-17T11:00:24;98954.81;;;8.57;85.22
46392;BME280;32098;49.448;7.904;2023-02-17T11:02:52;98916.25;;;8.34;85.51
46392;BME280;32098;49.448;7.904;2023-02-17T11:07:57;98982.00;;;8.81;86.08
46392;BME280;32098;49.448;7.904;2023-02-17T11:13:00;98977.38;;;9.02;85.12
46392;BME280;32098;49.448;7.904;2023-02-17T11:15:42;98980.84;;;9.09;84.83
46392;BME280;32098;49.448;7.904;2023-02-17T11:18:17;98978.63;;;9.19;84.18
46392;BME280;32098;49.448;7.904;2023-02-17T11:20:46;98955.22;;;9.08;83.91
46392;BME280;32098;49.448;7.904;2023-02-17T11:25:40;98973.91;;;9.21;83.47
46392;BME280;32098;49.448;7.904;2023-02-17T11:28:22;98964.88;;;9.22;83.16
46392;BME280;32098;49.448;7.904;2023-02-17T11:30:55;98950.09;;;9.07;83.07
46392;BME280;32098;49.448;7.904;2023-02-17T11:35:56;98980.88;;;9.22;83.25
46392;BME280;32098;49.448;7.904;2023-02-17T11:38:27;98954.81;;;9.18;82.83
46392;BME280;32098;49.448;7.904;2023-02-17T11:41:01;98966.34;;;9.32;82.54
46392;BME280;32098;49.448;7.904;2023-02-17T11:43:30;98924.69;;;9.11;82.60
46392;BME280;32098;49.448;7.904;2023-02-17T11:46:22;98968.19;;;9.31;82.79
46392;BME280;32098;49.448;7.904;2023-02-17T11:51:56;98958.94;;;9.20;84.16
46392;BME280;32098;49.448;7.904;2023-02-17T11:57:54;98952.56;;;9.15;84.95
46392;BME280;32098;49.448;7.904;2023-02-17T12:17:02;98939.97;;;8.76;88.22
46392;BME280;32098;49.448;7.904;2023-02-17T12:22:19;98942.28;;;8.92;88.69
46392;BME280;32098;49.448;7.904;2023-02-17T12:28:05;98927.53;;;8.90;88.99
46392;BME280;32098;49.448;7.904;2023-02-17T12:30:48;98876.38;;;8.53;89.86
46392;BME280;32098;49.448;7.904;2023-02-17T12:33:29;98939.97;;;8.76;90.33
46392;BME280;32098;49.448;7.904;2023-02-17T12:36:03;98930.34;;;8.75;90.43
46392;BME280;32098;49.448;7.904;2023-02-17T12:38:38;98925.66;;;8.84;89.50
46392;BME280;32098;49.448;7.904;2023-02-17T12:43:49;98942.25;;;8.79;89.95
46392;BME280;32098;49.448;7.904;2023-02-17T12:46:22;98913.44;;;8.55;91.16
46392;BME280;32098;49.448;7.904;2023-02-17T12:51:29;98922.16;;;8.83;90.47
46392;BME280;32098;49.448;7.904;2023-02-17T12:54:11;98917.25;;;8.80;90.74
46392;BME280;32098;49.448;7.904;2023-02-17T12:57:09;98912.31;;;8.71;90.99
46392;BME280;32098;49.448;7.904;2023-02-17T12:59:41;98917.06;;;8.88;90.57
46392;BME280;32098;49.448;7.904;2023-02-17T13:04:40;98885.25;;;8.67;91.54
46392;BME280;32098;49.448;7.904;2023-02-17T13:09:48;98909.47;;;8.85;91.79
46392;BME280;32098;49.448;7.904;2023-02-17T13:15:03;98910.06;;;8.81;92.12
46392;BME280;32098;49.448;7.904;2023-02-17T13:22:33;98847.09;;;8.47;92.48
46392;BME280;32098;49.448;7.904;2023-02-17T13:25:01;98870.84;;;8.55;93.04
46392;BME280;32098;49.448;7.904;2023-02-17T13:30:07;98886.50;;;8.78;91.86
46392;BME280;32098;49.448;7.904;2023-02-17T13:33:06;98857.97;;;8.52;91.81
46392;BME280;32098;49.448;7.904;2023-02-17T13:35:35;98905.56;;;8.81;91.57
46392;BME280;32098;49.448;7.904;2023-02-17T13:38:02;98900.88;;;8.83;91.18
46392;BME280;32098;49.448;7.904;2023-02-17T13:40:33;98900.88;;;8.83;91.38
46392;BME280;32098;49.448;7.904;2023-02-17T13:43:28;98901.03;;;8.69;91.86
46392;BME280;32098;49.448;7.904;2023-02-17T13:46:00;98893.47;;;8.72;92.30
46392;BME280;32098;49.448;7.904;2023-02-17T13:48:29;98882.00;;;8.72;92.37
46392;BME280;32098;49.448;7.904;2023-02-17T13:51:05;98886.31;;;8.79;92.27
46392;BME280;32098;49.448;7.904;2023-02-17T13:53:40;98801.59;;;8.29;91.58
46392;BME280;32098;49.448;7.904;2023-02-17T13:56:11;98889.59;;;8.75;92.08
46392;BME280;32098;49.448;7.904;2023-02-17T13:58:49;98908.41;;;8.73;92.73
46392;BME280;32098;49.448;7.904;2023-02-17T14:01:18;98902.53;;;8.84;91.99
46392;BME280;32098;49.448;7.904;2023-02-17T14:03:56;98912.78;;;8.87;92.10
46392;BME280;32098;49.448;7.904;2023-02-17T14:06:32;98902.47;;;8.71;92.82
46392;BME280;32098;49.448;7.904;2023-02-17T14:09:11;98876.59;;;8.65;92.75
46392;BME280;32098;49.448;7.904;2023-02-17T14:11:42;98898.63;;;8.93;92.18
46392;BME280;32098;49.448;7.904;2023-02-17T14:14:09;98888.59;;;8.82;93.09
46392;BME280;32098;49.448;7.904;2023-02-17T14:16:38;98823.72;;;8.29;92.94
46392;BME280;32098;49.448;7.904;2023-02-17T14:19:11;98888.75;;;8.74;94.02
46392;BME280;32098;49.448;7.904;2023-02-17T14:21:40;98882.75;;;8.66;94.45
46392;BME280;32098;49.448;7.904;2023-02-17T14:24:23;98893.41;;;8.66;94.80
46392;BME280;32098;49.448;7.904;2023-02-17T14:27:01;98884.19;;;8.62;95.56
46392;BME280;32098;49.448;7.904;2023-02-17T14:29:46;98877.03;;;8.62;95.55
46392;BME280;32098;49.448;7.904;2023-02-17T14:32:31;98871.50;;;8.57;95.98
46392;BME280;32098;49.448;7.904;2023-02-17T14:35:21;98872.94;;;8.66;95.33
46392;BME280;32098;49.448;7.904;2023-02-17T14:37:49;98839.69;;;8.42;95.21
46392;BME280;32098;49.448;7.904;2023-02-17T14:40:20;98867.19;;;8.56;95.71
46392;BME280;32098;49.448;7.904;2023-02-17T14:42:53;98811.56;;;8.14;96.13
46392;BME280;32098;49.448;7.904;2023-02-17T14:45:20;98875.38;;;8.54;95.62
46392;BME280;32098;49.448;7.904;2023-02-17T14:47:46;98830.03;;;8.35;95.27
46392;BME280;32098;49.448;7.904;2023-02-17T14:50:13;98871.94;;;8.67;95.40
46392;BME280;32098;49.448;7.904;2023-02-17T14:52:47;98826.94;;;8.25;95.92
46392;BME280;32098;49.448;7.904;2023-02-17T14:55:25;98811.41;;;8.35;95.91